createdAt,value
2018-11-04T06:12:38.081Z,15.03
2018-11-04T06:15:07.784Z,15.67
2018-11-04T06:17:37.766Z,14.40
2018-11-04T06:20:08.183Z,14.93
2018-11-04T06:22:37.434Z,14.33
2018-11-04T06:25:07.033Z,14.40
2018-11-04T06:27:35.736Z,13.87
2018-11-04T06:30:06.592Z,14.53
2018-11-04T06:32:35.629Z,14.40
2018-11-04T06:35:05.785Z,14.23
2018-11-04T06:37:35.450Z,17.43
2018-11-04T06:40:05.697Z,15.73
2018-11-04T06:42:35.218Z,14.90
2018-11-04T06:45:05.082Z,14.93
2018-11-04T06:47:33.903Z,16.00
2018-11-04T06:50:03.053Z,15.30
2018-11-04T06:52:32.613Z,16.47
2018-11-04T06:55:02.142Z,16.67
2018-11-04T06:57:31.162Z,15.70
2018-11-04T07:00:00.897Z,18.27
2018-11-04T07:02:30.301Z,16.47
2018-11-04T07:04:58.804Z,15.87
2018-11-04T07:07:27.591Z,15.57
2018-11-04T07:09:56.352Z,15.30
2018-11-04T07:12:25.391Z,18.27
2018-11-04T07:14:54.838Z,14.20
2018-11-04T07:17:24.050Z,15.77
2018-11-04T07:19:53.143Z,15.43
2018-11-04T07:22:22.642Z,17.40
2018-11-04T07:24:51.774Z,15.90
2018-11-04T07:27:21.223Z,17.67
2018-11-04T07:29:49.978Z,18.13
2018-11-04T07:32:18.712Z,11.70
2018-11-04T07:34:48.182Z,16.40
2018-11-04T07:37:17.386Z,15.17
2018-11-04T07:39:46.709Z,18.87
2018-11-04T07:42:15.756Z,15.20
2018-11-04T07:44:44.929Z,16.17
2018-11-04T07:47:14.466Z,17.80
2018-11-04T07:49:44.149Z,15.63
2018-11-04T07:52:13.699Z,15.93
2018-11-04T07:54:42.926Z,15.37
2018-11-04T07:57:13.272Z,17.27
2018-11-04T07:59:43.295Z,20.17
2018-11-04T08:02:13.827Z,15.80
2018-11-04T08:04:43.474Z,15.27
2018-11-04T08:07:12.649Z,15.37
2018-11-04T08:09:42.165Z,16.17
2018-11-04T08:12:11.187Z,15.50
2018-11-04T08:14:40.298Z,17.17
2018-11-04T08:17:10.286Z,15.00
2018-11-04T08:19:39.048Z,17.70
2018-11-04T08:22:08.858Z,18.90
2018-11-04T08:24:37.681Z,17.20
2018-11-04T08:27:10.883Z,13.30
2018-11-04T08:29:39.591Z,16.83
2018-11-04T08:32:08.463Z,16.43
2018-11-04T08:34:37.848Z,17.63
2018-11-04T08:37:07.633Z,16.87
2018-11-04T08:39:37.006Z,15.80
2018-11-04T08:42:06.757Z,20.20
2018-11-04T08:44:36.553Z,17.30
2018-11-04T08:47:06.027Z,16.57
2018-11-04T08:49:35.911Z,18.17
2018-11-04T08:52:05.964Z,16.90
2018-11-04T08:54:34.793Z,19.17
2018-11-04T08:57:06.997Z,19.73
2018-11-04T08:59:36.149Z,18.17
2018-11-04T09:02:05.206Z,17.17
2018-11-04T09:04:36.249Z,18.60
2018-11-04T09:07:05.982Z,21.33
2018-11-04T09:09:36.614Z,18.50
2018-11-04T09:12:05.659Z,18.80
2018-11-04T09:14:35.046Z,16.93
2018-11-04T09:17:04.078Z,14.90
2018-11-04T09:19:33.189Z,18.63
2018-11-04T09:22:02.342Z,21.17
2018-11-04T09:24:33.352Z,17.80
2018-11-04T09:27:02.538Z,19.13
2018-11-04T09:29:31.230Z,8.80
2018-11-04T09:32:00.215Z,12.00
2018-11-04T09:34:29.280Z,12.27
2018-11-04T09:36:58.036Z,18.27
2018-11-04T09:39:26.754Z,12.97
2018-11-04T09:41:55.627Z,20.20
2018-11-04T09:44:25.285Z,12.13
2018-11-04T09:46:54.400Z,19.60
2018-11-04T09:49:23.569Z,11.43
2018-11-04T09:51:52.581Z,12.60
2018-11-04T09:54:21.317Z,18.83
2018-11-04T09:56:50.022Z,20.93
2018-11-04T09:59:20.769Z,19.87
2018-11-04T10:01:50.105Z,6.50
2018-11-04T10:04:19.087Z,25.13
2018-11-04T10:06:48.110Z,10.07
2018-11-04T10:09:16.812Z,22.60
2018-11-04T10:11:46.331Z,22.77
2018-11-04T10:14:15.637Z,23.67
2018-11-04T10:16:45.667Z,21.27
2018-11-04T10:19:14.990Z,17.27
2018-11-04T10:21:43.823Z,23.80
2018-11-04T10:24:14.252Z,10.33
2018-11-04T10:26:43.049Z,19.17
2018-11-04T10:29:12.582Z,23.13
2018-11-04T10:31:41.643Z,18.87
2018-11-04T10:34:11.218Z,23.53
2018-11-04T10:36:39.954Z,12.57
2018-11-04T10:39:10.422Z,22.13
2018-11-04T10:41:41.520Z,23.83
2018-11-04T10:44:10.229Z,13.47
2018-11-04T10:46:39.209Z,7.10
2018-11-04T10:49:10.108Z,13.87
2018-11-04T10:51:39.186Z,17.40
2018-11-04T10:54:08.350Z,23.97
2018-11-04T10:56:37.594Z,25.60
2018-11-04T10:59:07.373Z,25.50
2018-11-04T11:01:36.306Z,23.03
2018-11-04T11:04:05.657Z,24.90
2018-11-04T11:06:35.180Z,24.90
2018-11-04T11:09:05.109Z,26.40
2018-11-04T11:11:34.545Z,24.30
2018-11-04T11:14:03.666Z,25.47
2018-11-04T11:16:32.843Z,24.40
2018-11-04T11:19:01.793Z,23.80
2018-11-04T11:21:31.038Z,25.73
2018-11-04T11:24:00.486Z,22.13
2018-11-04T11:26:29.883Z,22.30
2018-11-04T11:28:59.328Z,25.67
2018-11-04T11:31:28.038Z,12.53
2018-11-04T11:33:57.634Z,44.70
2018-11-04T11:36:27.240Z,58.93
2018-11-04T11:38:57.268Z,27.57
2018-11-04T11:41:26.374Z,19.23
2018-11-04T11:43:55.559Z,18.07
2018-11-04T11:46:24.486Z,26.33
2018-11-04T11:48:54.928Z,25.57
2018-11-04T11:51:23.715Z,25.20
2018-11-04T11:53:54.000Z,25.20
2018-11-04T11:56:23.501Z,19.30
2018-11-04T11:58:52.201Z,26.70
2018-11-04T12:01:21.631Z,24.73
2018-11-04T12:03:50.974Z,23.03
2018-11-04T12:06:20.015Z,23.50
2018-11-04T12:08:49.175Z,29.47
2018-11-04T12:11:18.819Z,25.53
2018-11-04T12:13:49.037Z,27.60
2018-11-04T12:16:18.326Z,23.87
2018-11-04T12:18:47.231Z,23.40
2018-11-04T12:21:16.023Z,25.37
2018-11-04T12:23:45.645Z,29.00
2018-11-04T12:26:15.078Z,23.40
2018-11-04T12:28:44.590Z,24.20
2018-11-04T12:31:14.748Z,19.00
2018-11-04T12:33:43.869Z,25.17
2018-11-04T12:36:14.095Z,23.97
2018-11-04T12:38:44.522Z,21.40
2018-11-04T12:41:13.685Z,26.47
2018-11-04T12:43:42.710Z,22.03
2018-11-04T12:46:11.429Z,18.37
2018-11-04T12:48:40.734Z,25.13
2018-11-04T12:51:09.534Z,10.30
2018-11-04T12:53:38.609Z,8.63
2018-11-04T12:56:08.168Z,29.10
2018-11-04T12:58:37.676Z,26.73
2018-11-04T13:01:06.789Z,26.00
2018-11-04T13:03:35.631Z,24.73
2018-11-04T13:06:04.850Z,17.50
2018-11-04T13:08:33.970Z,27.57
2018-11-04T13:11:02.989Z,21.10
2018-11-04T13:13:32.395Z,28.90
2018-11-04T13:16:01.626Z,25.87
2018-11-04T13:18:32.058Z,27.47
2018-11-04T13:21:00.836Z,27.23
2018-11-04T13:23:30.207Z,21.77
2018-11-04T13:25:58.924Z,14.63
2018-11-04T13:28:28.076Z,26.07
2018-11-04T13:30:56.934Z,29.50
2018-11-04T13:33:26.171Z,20.10
2018-11-04T13:35:55.988Z,30.90
2018-11-04T13:38:24.973Z,29.33
2018-11-04T13:40:53.715Z,31.63
2018-11-04T13:43:24.621Z,30.50
2018-11-04T13:45:54.184Z,25.93
2018-11-04T13:48:23.332Z,31.67
2018-11-04T13:50:52.047Z,29.07
2018-11-04T13:53:21.290Z,23.23
2018-11-04T13:55:50.473Z,30.67
2018-11-04T13:58:19.666Z,31.80
2018-11-04T14:00:48.493Z,30.77
2018-11-04T14:03:17.339Z,28.37
2018-11-04T14:05:46.479Z,28.57
2018-11-04T14:08:15.706Z,29.97
2018-11-04T14:10:44.852Z,30.70
2018-11-04T14:13:13.983Z,25.50
2018-11-04T14:15:42.930Z,31.77
2018-11-04T14:18:13.461Z,27.70
2018-11-04T14:20:42.175Z,22.50
2018-11-04T14:23:10.894Z,30.10
2018-11-04T14:25:40.282Z,29.67
2018-11-04T14:28:10.007Z,24.73
2018-11-04T14:30:40.005Z,30.23
2018-11-04T14:33:09.093Z,29.53
2018-11-04T14:35:38.266Z,30.40
2018-11-04T14:38:07.438Z,30.53
2018-11-04T14:40:36.707Z,30.10
2018-11-04T14:43:06.446Z,29.87
2018-11-04T14:45:36.431Z,32.30
2018-11-04T14:48:06.005Z,31.57
2018-11-04T14:50:34.734Z,32.13
2018-11-04T14:53:04.338Z,27.00
2018-11-04T14:55:35.131Z,23.43
2018-11-04T14:58:04.402Z,28.50
2018-11-04T15:00:35.870Z,29.67
2018-11-04T15:03:06.408Z,32.07
2018-11-04T15:05:35.336Z,33.27
2018-11-04T15:08:04.715Z,31.70
2018-11-04T15:10:33.811Z,33.40
2018-11-04T15:13:04.591Z,31.90
2018-11-04T15:15:35.846Z,33.00
2018-11-04T15:18:04.962Z,32.63
2018-11-04T15:20:34.385Z,25.37
2018-11-04T15:23:03.841Z,30.70
2018-11-04T15:25:34.252Z,30.30
2018-11-04T15:28:03.026Z,32.80
2018-11-04T15:30:32.783Z,33.63
2018-11-04T15:33:01.976Z,32.07
2018-11-04T15:35:31.694Z,32.43
2018-11-04T15:38:01.921Z,33.33
2018-11-04T15:40:31.306Z,31.97
2018-11-04T15:43:02.159Z,30.33
2018-11-04T15:45:30.867Z,32.67
2018-11-04T15:48:00.839Z,31.97
2018-11-04T15:50:29.602Z,31.60
2018-11-04T15:52:59.135Z,32.77
2018-11-04T15:55:28.441Z,34.83
2018-11-04T15:57:57.878Z,34.57
2018-11-04T16:00:26.660Z,33.30
2018-11-04T16:02:56.107Z,33.90
2018-11-04T16:05:25.313Z,34.20
2018-11-04T16:07:54.930Z,34.73
2018-11-04T16:10:23.981Z,35.67
2018-11-04T16:12:53.073Z,34.67
2018-11-04T16:15:21.868Z,34.77
2018-11-04T16:17:51.380Z,34.60
2018-11-04T16:20:20.410Z,34.17
2018-11-04T16:22:49.138Z,34.57
2018-11-04T16:25:18.327Z,34.73
2018-11-04T16:27:47.225Z,33.50
2018-11-04T16:30:16.425Z,35.47
2018-11-04T16:32:45.225Z,33.60
2018-11-04T16:35:16.008Z,35.47
2018-11-04T16:37:45.661Z,33.60
2018-11-04T16:40:15.002Z,33.70
2018-11-04T16:42:44.009Z,34.83
2018-11-04T16:45:14.597Z,33.73
2018-11-04T16:47:43.371Z,33.00
2018-11-04T16:50:13.924Z,33.57
2018-11-04T16:52:44.036Z,32.47
2018-11-04T16:55:13.743Z,33.77
2018-11-04T16:57:43.245Z,35.10
2018-11-04T17:00:12.877Z,34.10
2018-11-04T17:02:41.753Z,33.23
2018-11-04T17:05:11.934Z,32.97
2018-11-04T17:07:43.209Z,32.20
2018-11-04T17:10:12.087Z,35.23
2018-11-04T17:12:41.129Z,30.97
2018-11-04T17:15:12.403Z,33.63
2018-11-04T17:17:41.639Z,33.00
2018-11-04T17:20:14.167Z,33.10
2018-11-04T17:22:44.114Z,34.87
2018-11-04T17:25:13.305Z,34.07
2018-11-04T17:27:43.535Z,34.57
2018-11-04T17:30:15.706Z,33.77
2018-11-04T17:32:45.210Z,32.70
2018-11-04T17:35:15.343Z,32.63
2018-11-04T17:37:45.349Z,32.23
2018-11-04T17:40:14.934Z,33.97
2018-11-04T17:42:43.663Z,33.83
2018-11-04T17:45:14.279Z,29.50
2018-11-04T17:47:43.426Z,33.13
2018-11-04T17:50:16.079Z,31.07
2018-11-04T17:52:45.465Z,31.33
2018-11-04T17:55:14.262Z,31.40
2018-11-04T17:57:44.154Z,32.97
2018-11-04T18:00:13.826Z,30.23
2018-11-04T18:02:43.430Z,35.27
2018-11-04T18:05:13.089Z,33.50
2018-11-04T18:07:43.595Z,31.57
2018-11-04T18:10:14.554Z,33.50
2018-11-04T18:12:43.801Z,35.07
2018-11-04T18:15:14.373Z,35.20
2018-11-04T18:17:44.065Z,32.77
2018-11-04T18:20:14.220Z,39.40
2018-11-04T18:22:44.667Z,31.40
2018-11-04T18:25:13.999Z,30.57
2018-11-04T18:27:45.020Z,29.37
2018-11-04T18:30:15.484Z,33.00
2018-11-04T18:32:45.192Z,30.87
2018-11-04T18:35:14.440Z,30.87
2018-11-04T18:37:43.368Z,30.23
2018-11-04T18:40:15.958Z,24.10
2018-11-04T18:42:48.398Z,30.63
2018-11-04T18:45:17.918Z,34.07
2018-11-04T18:47:48.117Z,33.97
2018-11-04T18:50:18.281Z,30.87
2018-11-04T18:52:48.392Z,31.37
2018-11-04T18:55:20.381Z,26.03
2018-11-04T18:57:49.777Z,30.83
2018-11-04T19:00:19.858Z,34.90
2018-11-04T19:02:49.762Z,31.37
2018-11-04T19:05:19.091Z,31.57
2018-11-04T19:07:49.306Z,32.63
2018-11-04T19:10:19.924Z,32.73
2018-11-04T19:12:49.544Z,35.20
2018-11-04T19:15:19.126Z,34.00
2018-11-04T19:17:51.516Z,32.40
2018-11-04T19:20:21.078Z,33.33
2018-11-04T19:22:53.602Z,33.07
2018-11-04T19:25:23.150Z,34.53
2018-11-04T19:27:52.091Z,36.90
2018-11-04T19:30:21.366Z,36.83
2018-11-04T19:32:50.885Z,36.70
2018-11-04T19:35:19.884Z,35.30
2018-11-04T19:37:49.071Z,34.27
2018-11-04T19:40:18.438Z,37.07
2018-11-04T19:42:47.709Z,30.83
2018-11-04T19:45:16.941Z,34.33
2018-11-04T19:47:46.420Z,35.57
2018-11-04T19:50:15.519Z,36.10
2018-11-04T19:52:44.356Z,38.83
2018-11-04T19:55:14.046Z,33.53
2018-11-04T19:57:46.567Z,35.30
2018-11-04T20:00:15.967Z,34.07
2018-11-04T20:02:45.284Z,33.80
2018-11-04T20:05:14.747Z,36.27
2018-11-04T20:07:44.785Z,35.10
2018-11-04T20:10:16.112Z,35.40
2018-11-04T20:12:51.074Z,33.87
2018-11-04T20:15:20.307Z,33.27
2018-11-04T20:17:50.517Z,35.23
2018-11-04T20:20:21.997Z,34.60
2018-11-04T20:22:51.298Z,35.97
2018-11-04T20:25:25.872Z,35.97
2018-11-04T20:27:55.626Z,34.40
2018-11-04T20:30:24.692Z,33.30
2018-11-04T20:32:59.254Z,36.93
2018-11-04T20:35:29.158Z,34.23
2018-11-04T20:37:59.168Z,32.87
2018-11-04T20:40:33.910Z,33.23
2018-11-04T20:43:03.572Z,35.13
2018-11-04T20:45:32.342Z,36.67
2018-11-04T20:48:06.493Z,35.53
2018-11-04T20:50:41.624Z,39.93
2018-11-04T20:53:10.716Z,32.20
2018-11-04T20:55:46.275Z,32.67
2018-11-04T20:58:18.340Z,35.37
2018-11-04T21:00:48.034Z,34.20
2018-11-04T21:03:16.798Z,32.43
2018-11-04T21:05:45.718Z,33.50
2018-11-04T21:08:15.346Z,31.13
2018-11-04T21:10:44.106Z,33.50
2018-11-04T21:13:13.227Z,34.67
2018-11-04T21:15:42.358Z,32.27
2018-11-04T21:18:12.136Z,33.80
2018-11-04T21:20:41.538Z,32.77
2018-11-04T21:23:10.665Z,33.20
2018-11-04T21:25:39.613Z,34.73
2018-11-04T21:28:09.235Z,36.30
2018-11-04T21:30:38.475Z,32.93
2018-11-04T21:33:08.030Z,33.40
2018-11-04T21:35:37.154Z,33.67
2018-11-04T21:38:06.200Z,33.30
2018-11-04T21:40:34.971Z,33.60
2018-11-04T21:43:03.735Z,33.90
2018-11-04T21:45:33.823Z,34.73
2018-11-04T21:48:02.846Z,32.97
2018-11-04T21:50:31.966Z,33.37
2018-11-04T21:53:00.708Z,36.33
2018-11-04T21:55:30.103Z,33.17
